Time;durP1;ratioP1;P1;durP2;ratioP2;P2;SDS_P1;SDS_P2;PMS_P1;PMS_P2;Temp;Humidity;BMP_temperature;BMP_pressure;BME280_temperature;BME280_humidity;BME280_pressure;Samples;Min_cycle;Max_cycle;Signal;HPM_P1;HPM_P2
2022/08/24 00:01:15;;;;;;;0.70;0.68;;;23.40;97.70;;;;;;6214189;23;20012;-81
2022/08/24 00:03:42;;;;;;;0.95;0.90;;;23.40;97.90;;;;;;6213417;23;20306;-80
2022/08/24 00:06:13;;;;;;;0.77;0.77;;;23.40;97.90;;;;;;6214035;23;20001;-81
2022/08/24 00:08:40;;;;;;;1.60;0.85;;;23.30;98.10;;;;;;6212171;23;20027;-80
2022/08/24 00:11:06;;;;;;;0.90;0.90;;;23.30;98.20;;;;;;6212274;23;20026;-80
2022/08/24 00:13:33;;;;;;;1.10;0.80;;;23.30;98.40;;;;;;6213593;23;20001;-79
2022/08/24 00:15:59;;;;;;;1.65;0.90;;;23.30;98.50;;;;;;6214070;23;20001;-80
2022/08/24 00:18:24;;;;;;;1.40;0.90;;;23.20;98.70;;;;;;6213300;23;20013;-80
2022/08/24 00:20:50;;;;;;;1.58;0.90;;;23.20;99.00;;;;;;6213868;23;20087;-80
2022/08/24 00:23:16;;;;;;;3.92;0.70;;;23.10;99.10;;;;;;6213611;23;19996;-80
2022/08/24 00:25:42;;;;;;;0.90;0.90;;;23.00;99.30;;;;;;6212082;23;20020;-80
2022/08/24 00:28:08;;;;;;;1.17;1.00;;;23.00;99.40;;;;;;6213474;23;20043;-79
2022/08/24 00:30:34;;;;;;;5.50;0.80;;;22.90;99.90;;;;;;6214051;23;19997;-80
2022/08/24 00:33:00;;;;;;;1.55;1.00;;;22.80;99.70;;;;;;6213363;23;19997;-79
2022/08/24 00:35:27;;;;;;;0.70;0.70;;;22.80;99.90;;;;;;6212303;23;20336;-80
2022/08/24 00:37:53;;;;;;;1.23;0.75;;;22.70;99.90;;;;;;6211432;23;20005;-80
2022/08/24 00:40:32;;;;;;;1.70;0.90;;;22.70;99.90;;;;;;6211944;23;20028;-79
2022/08/24 00:43:03;;;;;;;1.17;0.80;;;22.60;99.90;;;;;;6213321;23;20001;-80
2022/08/24 00:46:08;;;;;;;1.00;0.90;;;22.60;99.90;;;;;;6213761;23;20075;-80
2022/08/24 00:48:38;;;;;;;1.73;1.00;;;22.60;99.90;;;;;;6211413;23;20031;-80
2022/08/24 00:51:13;;;;;;;0.88;0.88;;;22.50;99.90;;;;;;6213614;23;20007;-80
2022/08/24 00:53:44;;;;;;;0.70;0.70;;;22.50;99.90;;;;;;6212430;23;20011;-79
2022/08/24 00:56:16;;;;;;;0.68;0.68;;;22.50;99.90;;;;;;6213236;23;20052;-80
2022/08/24 00:58:48;;;;;;;2.35;1.00;;;22.50;99.90;;;;;;6211630;23;20113;-79
2022/08/24 01:01:14;;;;;;;0.95;0.90;;;22.40;99.90;;;;;;6213495;23;20017;-80
2022/08/24 01:03:42;;;;;;;2.22;0.90;;;22.40;99.90;;;;;;6212974;23;20004;-80
2022/08/24 01:06:08;;;;;;;1.45;1.10;;;22.40;99.90;;;;;;6212126;23;20032;-80
2022/08/24 01:08:34;;;;;;;2.95;0.80;;;22.40;99.90;;;;;;6212801;23;20493;-80
2022/08/24 01:11:06;;;;;;;2.00;0.90;;;22.40;99.90;;;;;;6213204;23;20020;-80
2022/08/24 01:13:33;;;;;;;2.05;1.00;;;22.40;99.90;;;;;;6212785;23;20008;-80
2022/08/24 01:16:04;;;;;;;1.98;1.00;;;22.40;99.90;;;;;;6211768;23;20008;-80
2022/08/24 01:18:48;;;;;;;3.65;0.75;;;22.30;99.90;;;;;;6212975;23;20020;-80
2022/08/24 01:21:20;;;;;;;1.40;0.88;;;22.30;99.90;;;;;;6211710;23;20039;-80
2022/08/24 01:23:47;;;;;;;5.45;1.20;;;22.30;99.90;;;;;;6213845;23;20000;-80
2022/08/24 01:26:42;;;;;;;1.17;0.90;;;22.30;99.90;;;;;;6212992;23;20008;-80
2022/08/24 01:29:22;;;;;;;2.60;1.00;;;22.20;99.90;;;;;;6209669;23;19997;-79
2022/08/24 01:31:48;;;;;;;3.25;0.93;;;22.10;99.90;;;;;;6213439;23;19997;-80
2022/08/24 01:34:14;;;;;;;1.27;0.90;;;22.10;99.90;;;;;;6211188;23;20012;-80
2022/08/24 01:36:44;;;;;;;1.42;0.80;;;22.10;99.90;;;;;;6213293;23;20000;-79
2022/08/24 01:39:19;;;;;;;2.55;0.65;;;22.10;99.90;;;;;;6212716;23;20000;-80
2022/08/24 01:41:45;;;;;;;1.55;0.90;;;22.10;99.90;;;;;;6212993;23;20465;-81
2022/08/24 01:44:12;;;;;;;2.15;0.80;;;22.00;99.90;;;;;;6212940;23;19993;-80
2022/08/24 01:46:42;;;;;;;1.02;0.70;;;22.00;99.90;;;;;;6211866;23;20009;-80
2022/08/24 01:49:09;;;;;;;0.65;0.60;;;22.00;99.90;;;;;;6212649;23;20424;-80
2022/08/24 01:51:35;;;;;;;1.80;0.88;;;22.00;99.90;;;;;;6213206;23;20027;-81
2022/08/24 01:54:02;;;;;;;0.85;0.75;;;22.00;99.90;;;;;;6211093;23;20079;-81
2022/08/24 01:56:29;;;;;;;1.95;1.05;;;22.00;99.90;;;;;;6213061;23;20027;-78
2022/08/24 01:58:56;;;;;;;1.42;0.90;;;22.00;99.90;;;;;;6212519;23;20005;-78
2022/08/24 02:01:22;;;;;;;1.10;0.80;;;22.00;99.90;;;;;;6213055;23;20141;-78
2022/08/24 02:03:48;;;;;;;1.35;0.93;;;21.90;99.90;;;;;;6212468;23;19992;-78
2022/08/24 02:06:18;;;;;;;1.50;0.90;;;21.90;99.90;;;;;;6213005;23;20024;-78
2022/08/24 02:08:44;;;;;;;1.63;1.00;;;21.90;99.90;;;;;;6212490;23;19996;-78
2022/08/24 02:11:11;;;;;;;1.15;0.98;;;21.90;99.90;;;;;;6212652;23;20285;-78
2022/08/24 02:13:38;;;;;;;1.00;0.90;;;21.90;99.90;;;;;;6210871;23;20432;-78
2022/08/24 02:16:06;;;;;;;1.35;0.73;;;21.80;99.90;;;;;;6212846;23;20074;-78
2022/08/24 02:18:33;;;;;;;1.13;1.00;;;21.70;99.90;;;;;;6210767;23;20013;-78
2022/08/24 02:21:00;;;;;;;1.30;0.82;;;21.70;99.90;;;;;;6212832;23;20055;-78
2022/08/24 02:23:27;;;;;;;2.17;1.00;;;21.70;99.90;;;;;;6212558;23;20004;-78
2022/08/24 02:25:53;;;;;;;2.22;0.80;;;21.60;99.90;;;;;;6212764;23;19997;-78
2022/08/24 02:28:20;;;;;;;3.00;0.77;;;21.60;99.90;;;;;;6212305;23;20011;-78
2022/08/24 02:30:46;;;;;;;1.20;1.00;;;21.50;99.90;;;;;;6211548;23;20028;-79
2022/08/24 02:33:12;;;;;;;1.17;1.00;;;21.50;99.90;;;;;;6212519;23;20001;-79
2022/08/24 02:35:39;;;;;;;1.02;0.93;;;21.40;99.90;;;;;;6211224;23;20035;-78
2022/08/24 02:38:05;;;;;;;0.90;0.90;;;21.40;99.90;;;;;;6212325;23;20000;-80
2022/08/24 02:40:31;;;;;;;2.67;0.90;;;21.40;99.90;;;;;;6212757;23;20008;-80
2022/08/24 02:42:57;;;;;;;1.75;1.10;;;21.40;99.90;;;;;;6212259;23;20255;-81
2022/08/24 02:45:23;;;;;;;0.90;0.90;;;21.30;99.90;;;;;;6213012;23;19997;-79
2022/08/24 02:47:49;;;;;;;0.77;0.77;;;21.30;99.90;;;;;;6212532;23;20448;-80
2022/08/24 02:50:16;;;;;;;1.17;0.88;;;21.30;99.90;;;;;;6212763;23;20003;-80
2022/08/24 02:52:42;;;;;;;2.72;0.85;;;21.30;99.90;;;;;;6212241;23;20004;-81
2022/08/24 02:55:12;;;;;;;1.38;0.80;;;21.20;99.90;;;;;;6212752;23;20000;-79
2022/08/24 02:57:38;;;;;;;2.38;1.00;;;21.20;99.90;;;;;;6210535;23;20015;-79
2022/08/24 03:00:08;;;;;;;4.68;1.25;;;21.10;99.90;;;;;;6212846;23;20003;-79
2022/08/24 03:02:34;;;;;;;1.17;0.90;;;21.10;99.90;;;;;;6210458;23;20012;-80
2022/08/24 03:05:00;;;;;;;1.42;0.90;;;21.00;99.90;;;;;;6212980;23;20031;-80
2022/08/24 03:07:27;;;;;;;1.02;0.80;;;21.00;99.90;;;;;;6212351;23;20067;-79
2022/08/24 03:09:52;;;;;;;1.63;1.10;;;21.00;99.90;;;;;;6211095;23;20017;-78
2022/08/24 03:12:18;;;;;;;1.02;0.82;;;20.90;99.90;;;;;;6211849;23;20494;-79
2022/08/24 03:14:44;;;;;;;0.93;0.82;;;20.90;99.90;;;;;;6212739;23;20001;-79
2022/08/24 03:17:10;;;;;;;1.00;0.88;;;20.90;99.90;;;;;;6211437;23;20140;-79
2022/08/24 03:19:36;;;;;;;1.63;0.90;;;20.80;99.90;;;;;;6214571;23;20103;-79
2022/08/24 03:22:02;;;;;;;1.40;0.98;;;20.80;99.90;;;;;;6213853;23;20023;-78
2022/08/24 03:24:28;;;;;;;3.15;0.80;;;20.70;99.90;;;;;;6214369;23;20081;-79
2022/08/24 03:26:54;;;;;;;1.20;0.85;;;20.80;99.90;;;;;;6214306;23;20008;-78
2022/08/24 03:29:19;;;;;;;1.85;0.85;;;20.70;99.90;;;;;;6212348;23;20004;-78
2022/08/24 03:31:46;;;;;;;1.75;0.65;;;20.80;99.90;;;;;;6214412;23;20084;-79
2022/08/24 03:34:12;;;;;;;0.75;0.75;;;20.70;99.90;;;;;;6214159;23;19997;-78
2022/08/24 03:36:39;;;;;;;1.73;0.80;;;20.70;99.90;;;;;;6213053;23;20019;-78
2022/08/24 03:39:06;;;;;;;2.20;0.90;;;20.80;99.90;;;;;;6213285;23;20000;-78
2022/08/24 03:41:32;;;;;;;2.50;0.90;;;20.80;99.90;;;;;;6212571;23;20020;-79
2022/08/24 03:43:57;;;;;;;1.65;0.95;;;20.80;99.90;;;;;;6212149;23;20088;-79
2022/08/24 03:46:27;;;;;;;1.50;0.90;;;20.90;99.90;;;;;;6212663;23;20175;-79
2022/08/24 03:48:57;;;;;;;1.38;0.90;;;21.00;99.90;;;;;;6213619;23;20000;-78
2022/08/24 03:51:26;;;;;;;1.95;0.85;;;21.00;99.90;;;;;;6214254;23;20005;-79
2022/08/24 03:53:53;;;;;;;1.75;0.98;;;21.10;99.90;;;;;;6213588;23;20027;-79
2022/08/24 03:56:19;;;;;;;5.38;1.00;;;21.10;99.90;;;;;;6214088;23;20008;-78
2022/08/24 03:58:45;;;;;;;0.93;0.70;;;21.10;99.90;;;;;;6213379;23;19999;-79
2022/08/24 04:01:12;;;;;;;1.52;0.90;;;21.10;99.90;;;;;;6214179;23;20017;-80
2022/08/24 04:03:40;;;;;;;2.63;0.90;;;21.00;99.90;;;;;;6213848;23;20359;-80
2022/08/24 04:06:08;;;;;;;1.10;0.85;;;21.00;99.90;;;;;;6212774;23;20011;-79
2022/08/24 04:08:34;;;;;;;1.08;0.98;;;21.00;99.90;;;;;;6213461;23;20071;-79
2022/08/24 04:11:02;;;;;;;1.85;0.90;;;21.00;99.90;;;;;;6214018;23;20005;-80
2022/08/24 04:13:31;;;;;;;1.50;1.00;;;20.90;99.90;;;;;;6213610;23;20007;-79
2022/08/24 04:16:03;;;;;;;0.70;0.70;;;20.90;99.90;;;;;;6212600;23;20012;-79
2022/08/24 04:18:29;;;;;;;2.33;1.02;;;20.80;99.90;;;;;;6213634;23;20019;-79
2022/08/24 04:20:55;;;;;;;1.83;1.00;;;20.80;99.90;;;;;;6213860;23;20152;-79
2022/08/24 04:23:21;;;;;;;1.33;0.90;;;20.80;99.90;;;;;;6213274;23;20008;-79
2022/08/24 04:25:47;;;;;;;1.35;0.80;;;20.80;99.90;;;;;;6214016;23;19997;-79
2022/08/24 04:28:17;;;;;;;1.02;0.82;;;20.70;99.90;;;;;;6212894;23;20005;-79
2022/08/24 04:30:44;;;;;;;1.02;0.80;;;20.70;99.90;;;;;;6212253;23;20011;-79
2022/08/24 04:33:11;;;;;;;1.80;0.80;;;20.70;99.90;;;;;;6213304;23;20024;-79
2022/08/24 04:35:39;;;;;;;1.33;0.82;;;20.70;99.90;;;;;;6214033;23;20001;-79
2022/08/24 04:38:06;;;;;;;1.42;0.90;;;20.70;99.90;;;;;;6213282;23;20338;-78
2022/08/24 04:40:32;;;;;;;1.10;0.80;;;20.60;99.90;;;;;;6213527;23;20005;-79
2022/08/24 04:42:57;;;;;;;2.15;0.98;;;20.70;99.90;;;;;;6213203;23;20001;-79
2022/08/24 04:45:24;;;;;;;1.65;0.90;;;20.70;99.90;;;;;;6213509;23;20028;-79
2022/08/24 04:47:50;;;;;;;0.80;0.80;;;20.70;99.90;;;;;;6213128;23;20000;-79
2022/08/24 04:50:16;;;;;;;1.65;0.70;;;20.70;99.90;;;;;;6213843;23;20036;-79
2022/08/24 04:52:42;;;;;;;2.50;1.00;;;20.70;99.90;;;;;;6213093;23;20058;-79
2022/08/24 04:55:08;;;;;;;4.43;0.95;;;20.80;99.90;;;;;;6213588;23;20058;-80
2022/08/24 04:57:34;;;;;;;0.98;0.75;;;20.80;99.90;;;;;;6213109;23;20344;-80
2022/08/24 05:00:00;;;;;;;2.05;0.90;;;20.90;99.90;;;;;;6213511;23;20007;-79
2022/08/24 05:02:26;;;;;;;1.27;0.80;;;21.00;99.90;;;;;;6212922;23;20016;-78
2022/08/24 05:04:52;;;;;;;0.70;0.70;;;21.10;99.90;;;;;;6211907;23;20001;-79
2022/08/24 05:07:18;;;;;;;0.95;0.88;;;21.10;99.90;;;;;;6213472;23;20000;-78
2022/08/24 05:09:44;;;;;;;0.70;0.70;;;21.10;99.90;;;;;;6211636;23;20154;-79
2022/08/24 05:12:10;;;;;;;1.08;0.98;;;21.10;99.90;;;;;;6211311;23;20008;-79
2022/08/24 05:14:36;;;;;;;3.33;0.95;;;21.20;99.90;;;;;;6213426;23;20029;-78
2022/08/24 05:17:02;;;;;;;2.00;0.90;;;21.30;99.90;;;;;;6212999;23;20395;-80
2022/08/24 05:19:28;;;;;;;1.45;0.90;;;21.30;99.90;;;;;;6213549;23;20017;-79
2022/08/24 05:21:54;;;;;;;1.33;0.80;;;21.30;99.90;;;;;;6212973;23;20343;-79
2022/08/24 05:24:19;;;;;;;1.00;0.90;;;21.40;99.90;;;;;;6211371;23;20359;-79
2022/08/24 05:26:46;;;;;;;2.10;1.00;;;21.40;99.90;;;;;;6211552;23;20004;-79
2022/08/24 05:29:12;;;;;;;1.70;1.00;;;21.40;99.90;;;;;;6213041;23;20383;-79
2022/08/24 05:31:43;;;;;;;3.55;1.17;;;21.50;99.90;;;;;;6213230;23;20063;-79
2022/08/24 05:34:08;;;;;;;1.00;0.88;;;21.60;99.90;;;;;;6212671;23;20020;-78
2022/08/24 05:36:39;;;;;;;3.92;0.88;;;21.50;99.90;;;;;;6211827;23;20013;-81
2022/08/24 05:39:10;;;;;;;3.40;0.80;;;21.60;99.90;;;;;;6210973;23;20004;-78
2022/08/24 05:41:36;;;;;;;1.85;0.90;;;21.70;99.90;;;;;;6213019;23;20004;-84
2022/08/24 05:44:03;;;;;;;4.93;1.20;;;21.70;99.90;;;;;;6211230;23;20059;-79
2022/08/24 05:46:30;;;;;;;1.00;0.90;;;21.70;99.90;;;;;;6211684;23;20000;-81
2022/08/24 05:48:58;;;;;;;2.20;1.17;;;21.80;99.90;;;;;;6213022;23;20001;-80
2022/08/24 05:51:23;;;;;;;1.27;1.17;;;21.80;99.90;;;;;;6213699;23;20459;-81
2022/08/24 05:53:50;;;;;;;1.10;0.95;;;21.80;99.90;;;;;;6210978;23;20001;-81
2022/08/24 05:56:17;;;;;;;373.83;128.52;;;21.90;99.90;;;;;;6209637;23;20075;-84
2022/08/24 05:58:43;;;;;;;113.72;35.33;;;22.00;99.90;;;;;;6208290;23;20004;-84
2022/08/24 06:01:15;;;;;;;11.73;4.38;;;22.00;99.90;;;;;;6209312;23;20050;-82
2022/08/24 06:03:41;;;;;;;3.78;1.30;;;22.00;99.90;;;;;;6208637;23;20001;-80
2022/08/24 06:06:08;;;;;;;3.05;1.17;;;22.10;99.90;;;;;;6208798;23;20000;-85
2022/08/24 06:08:35;;;;;;;2.75;1.40;;;22.10;99.90;;;;;;6208744;23;20428;-83
2022/08/24 06:11:01;;;;;;;4.57;1.33;;;22.20;99.90;;;;;;6206594;23;20039;-80
2022/08/24 06:13:28;;;;;;;6.25;1.23;;;22.20;99.90;;;;;;6208194;23;20436;-82
2022/08/24 06:16:06;;;;;;;2.47;1.38;;;22.20;99.90;;;;;;6208884;23;20008;-85
2022/08/24 06:18:32;;;;;;;1.88;1.50;;;22.30;99.90;;;;;;6212546;23;20079;-81
2022/08/24 06:21:02;;;;;;;2.67;1.17;;;22.30;99.90;;;;;;6211383;23;20012;-82
2022/08/24 06:23:27;;;;;;;1.85;1.38;;;22.40;99.90;;;;;;6212975;23;20000;-81
2022/08/24 06:28:37;;;;;;;0.93;0.90;;;22.50;99.90;;;;;;6212560;23;20023;-77
2022/08/24 06:31:05;;;;;;;1.23;1.08;;;22.60;99.90;;;;;;6212846;23;20440;-83
2022/08/24 06:33:31;;;;;;;1.63;0.90;;;22.60;99.90;;;;;;6212658;23;20000;-79
2022/08/24 06:35:57;;;;;;;2.28;0.80;;;22.60;99.90;;;;;;6213077;23;20450;-76
2022/08/24 06:38:23;;;;;;;1.02;0.80;;;22.70;99.90;;;;;;6212443;23;20010;-76
2022/08/24 06:40:49;;;;;;;1.23;0.98;;;22.80;99.90;;;;;;6212457;23;20005;-79
2022/08/24 06:43:14;;;;;;;0.93;0.82;;;22.90;99.90;;;;;;6210443;23;20007;-77
2022/08/24 06:45:41;;;;;;;2.80;1.17;;;22.90;99.90;;;;;;6211289;23;20188;-77
2022/08/24 06:48:07;;;;;;;2.65;1.27;;;23.10;99.90;;;;;;6212583;23;20001;-77
2022/08/24 06:50:33;;;;;;;0.93;0.80;;;23.10;99.90;;;;;;6213865;23;19997;-78
2022/08/24 06:53:00;;;;;;;3.72;0.98;;;23.20;99.90;;;;;;6214048;23;20046;-78
2022/08/24 06:55:26;;;;;;;4.38;1.20;;;23.30;99.90;;;;;;6214938;23;20004;-76
2022/08/24 06:57:52;;;;;;;2.72;1.30;;;23.30;99.90;;;;;;6214445;23;20005;-77
2022/08/24 07:00:18;;;;;;;4.03;1.25;;;23.40;99.90;;;;;;6214780;23;20001;-76
2022/08/24 07:02:44;;;;;;;1.10;1.00;;;23.50;99.90;;;;;;6212249;23;20032;-76
2022/08/24 07:05:10;;;;;;;1.35;1.20;;;23.60;99.90;;;;;;6214716;23;20331;-76
2022/08/24 07:07:35;;;;;;;3.03;1.48;;;23.60;99.90;;;;;;6214424;23;20007;-78
2022/08/24 07:10:02;;;;;;;3.15;1.20;;;23.70;99.90;;;;;;6214351;23;20052;-76
2022/08/24 07:12:28;;;;;;;0.80;0.80;;;23.70;99.90;;;;;;6213837;23;20005;-76
2022/08/24 07:14:54;;;;;;;1.45;1.10;;;23.80;99.90;;;;;;6214425;23;20027;-76
2022/08/24 07:17:20;;;;;;;3.63;1.02;;;23.90;99.90;;;;;;6213849;23;20471;-76
2022/08/24 07:19:46;;;;;;;2.28;1.10;;;24.00;99.90;;;;;;6214692;23;20028;-76
2022/08/24 07:22:12;;;;;;;1.17;1.08;;;24.10;99.90;;;;;;6214093;23;20008;-76
2022/08/24 07:24:38;;;;;;;3.30;1.05;;;24.10;99.90;;;;;;6214148;23;20001;-76
2022/08/24 07:27:05;;;;;;;1.23;1.00;;;24.20;99.90;;;;;;6214400;23;20336;-76
2022/08/24 07:29:31;;;;;;;1.10;1.00;;;24.20;99.90;;;;;;6214435;23;20494;-76
2022/08/24 07:31:57;;;;;;;1.13;0.90;;;24.20;99.90;;;;;;6214347;23;20005;-76
2022/08/24 07:34:23;;;;;;;2.15;1.00;;;24.30;99.90;;;;;;6214180;23;20001;-75
2022/08/24 07:36:50;;;;;;;1.05;0.93;;;24.40;99.90;;;;;;6212648;23;20001;-76
2022/08/24 07:39:16;;;;;;;0.95;0.90;;;24.50;99.90;;;;;;6214125;23;20000;-76
2022/08/24 07:41:44;;;;;;;1.02;0.88;;;24.70;99.60;;;;;;6214270;23;20013;-76
2022/08/24 07:44:11;;;;;;;2.88;1.15;;;24.90;99.10;;;;;;6214125;23;20379;-77
2022/08/24 07:46:39;;;;;;;1.33;1.08;;;25.10;98.90;;;;;;6212539;23;20009;-76
2022/08/24 07:49:06;;;;;;;3.95;1.02;;;25.20;98.50;;;;;;6213703;23;20514;-76
2022/08/24 07:51:33;;;;;;;0.77;0.70;;;25.30;97.80;;;;;;6213931;23;20048;-76
2022/08/24 07:54:01;;;;;;;3.13;1.05;;;25.40;97.60;;;;;;6213841;23;20072;-76
2022/08/24 07:56:27;;;;;;;1.15;1.00;;;25.50;97.60;;;;;;6212823;23;20050;-76
2022/08/24 07:58:54;;;;;;;1.75;1.00;;;25.70;97.40;;;;;;6208218;23;20001;-75
2022/08/24 08:01:21;;;;;;;2.47;0.70;;;25.90;97.60;;;;;;6211108;23;20024;-76
2022/08/24 08:03:47;;;;;;;2.35;1.00;;;26.10;96.90;;;;;;6211844;23;20007;-76
2022/08/24 08:06:13;;;;;;;1.33;0.88;;;26.30;96.70;;;;;;6213351;23;20005;-75
2022/08/24 08:08:40;;;;;;;1.13;0.85;;;26.50;96.50;;;;;;6213634;23;20081;-75
2022/08/24 08:11:07;;;;;;;1.10;0.98;;;26.70;95.90;;;;;;6212145;23;20050;-75
2022/08/24 08:13:34;;;;;;;0.90;0.90;;;26.90;95.50;;;;;;6213224;23;20007;-75
2022/08/24 08:16:00;;;;;;;1.23;1.00;;;27.00;95.20;;;;;;6214167;23;20005;-75
2022/08/24 08:18:27;;;;;;;1.63;0.88;;;27.10;94.90;;;;;;6213232;23;20014;-74
2022/08/24 08:20:53;;;;;;;1.48;0.80;;;27.20;94.40;;;;;;6213871;23;20000;-74
2022/08/24 08:26:06;;;;;;;1.80;1.10;;;27.40;94.30;;;;;;6213829;23;20019;-77
2022/08/24 08:28:33;;;;;;;0.88;0.82;;;27.40;94.40;;;;;;6213369;23;20001;-75
2022/08/24 08:31:04;;;;;;;2.55;1.00;;;27.40;94.50;;;;;;6214068;23;19997;-75
2022/08/24 08:33:30;;;;;;;1.73;0.80;;;27.40;94.10;;;;;;6211725;23;20397;-75
2022/08/24 08:36:08;;;;;;;1.02;0.88;;;27.50;94.10;;;;;;6214184;23;20056;-75
2022/08/24 08:38:34;;;;;;;0.93;0.82;;;27.60;93.80;;;;;;6213173;23;20001;-75
2022/08/24 08:41:06;;;;;;;3.42;1.20;;;27.60;93.70;;;;;;6213855;23;20178;-75
2022/08/24 08:43:38;;;;;;;2.20;1.13;;;27.50;93.40;;;;;;6213345;23;20308;-75
2022/08/24 08:46:41;;;;;;;0.90;0.90;;;27.40;93.50;;;;;;6212217;23;20456;-75
2022/08/24 08:49:37;;;;;;;8.10;1.30;;;27.30;94.30;;;;;;6213048;23;20011;-75
2022/08/24 08:52:26;;;;;;;1.63;0.93;;;27.30;93.70;;;;;;6211858;23;20100;-74
2022/08/24 08:55:04;;;;;;;1.08;0.95;;;27.40;93.60;;;;;;6212220;23;20000;-75
2022/08/24 08:58:05;;;;;;;1.63;1.17;;;27.40;93.30;;;;;;6211304;23;20015;-74
2022/08/24 09:01:05;;;;;;;4.47;1.40;;;27.30;93.90;;;;;;6185711;23;20040;-78
2022/08/24 09:03:52;;;;;;;1.48;1.20;;;27.20;93.60;;;;;;6213100;23;20005;-77
2022/08/24 09:06:29;;;;;;;1.38;1.10;;;27.10;93.50;;;;;;6213339;23;20024;-77
2022/08/24 09:09:06;;;;;;;1.10;1.00;;;27.00;93.70;;;;;;6211464;23;20039;-77
2022/08/24 09:11:32;;;;;;;2.08;1.23;;;26.90;93.40;;;;;;6213510;23;20044;-77
2022/08/24 09:14:31;;;;;;;1.13;1.02;;;26.80;93.30;;;;;;6212899;23;20091;-77
2022/08/24 09:17:07;;;;;;;3.45;1.17;;;26.70;93.60;;;;;;6213243;23;20008;-77
2022/08/24 09:19:58;;;;;;;3.38;1.30;;;26.60;94.10;;;;;;6211631;23;20009;-77
2022/08/24 09:22:24;;;;;;;1.58;1.20;;;26.60;93.80;;;;;;6211068;23;20032;-77
2022/08/24 09:24:53;;;;;;;2.80;1.60;;;26.60;93.60;;;;;;6213211;23;20501;-76
2022/08/24 09:27:40;;;;;;;3.90;1.55;;;26.60;94.40;;;;;;6211264;23;20012;-76
2022/08/24 09:30:12;;;;;;;2.33;1.50;;;26.60;93.60;;;;;;6213483;23;20055;-76
2022/08/24 09:33:01;;;;;;;2.30;1.40;;;26.70;93.80;;;;;;6212918;23;20332;-77
2022/08/24 09:35:39;;;;;;;3.10;1.45;;;26.60;93.70;;;;;;6211514;23;20008;-76
2022/08/24 09:38:22;;;;;;;2.78;1.30;;;26.70;93.80;;;;;;6212624;23;20027;-76
2022/08/24 09:41:06;;;;;;;2.42;1.27;;;26.80;94.30;;;;;;6212761;23;20071;-76
2022/08/24 09:43:35;;;;;;;3.92;1.65;;;26.80;93.70;;;;;;6211989;23;20066;-77
2022/08/24 09:46:32;;;;;;;1.98;1.63;;;26.80;93.50;;;;;;6211404;23;20000;-76
2022/08/24 09:49:09;;;;;;;1.90;1.70;;;26.90;93.50;;;;;;6212736;23;20011;-77
2022/08/24 09:52:00;;;;;;;3.05;1.75;;;26.90;93.60;;;;;;6211624;23;20004;-77
2022/08/24 09:54:46;;;;;;;2.00;1.70;;;27.00;93.40;;;;;;6213023;23;20516;-76
2022/08/24 09:57:25;;;;;;;2.03;1.77;;;27.10;92.80;;;;;;6135983;23;20596;-76
2022/08/24 10:00:12;;;;;;;1.73;1.63;;;27.20;92.90;;;;;;6212982;23;20004;-76
2022/08/24 10:03:01;;;;;;;2.35;1.88;;;27.20;92.60;;;;;;6212457;23;20009;-76
2022/08/24 10:05:54;;;;;;;1.90;1.80;;;27.20;92.70;;;;;;6213200;23;19997;-76
2022/08/24 10:08:54;;;;;;;2.38;2.10;;;27.20;92.40;;;;;;6212720;23;20035;-76
2022/08/24 10:11:56;;;;;;;2.08;1.98;;;27.10;92.70;;;;;;6212846;23;20088;-76
2022/08/24 10:14:40;;;;;;;2.70;2.20;;;27.20;92.80;;;;;;6212789;23;20480;-77
2022/08/24 10:17:35;;;;;;;2.55;2.10;;;27.20;92.10;;;;;;6212504;23;20008;-75
2022/08/24 10:20:16;;;;;;;2.25;2.05;;;27.30;92.20;;;;;;6211067;23;20160;-75
2022/08/24 10:23:03;;;;;;;2.10;1.92;;;27.30;92.50;;;;;;6210703;23;20016;-75
2022/08/24 10:25:46;;;;;;;3.17;2.15;;;27.30;92.40;;;;;;6213138;23;20076;-75
2022/08/24 10:28:43;;;;;;;3.22;2.15;;;27.30;92.40;;;;;;6212359;23;20005;-75
2022/08/24 10:31:29;;;;;;;2.53;2.03;;;27.40;92.50;;;;;;6212987;23;20008;-76
2022/08/24 10:34:17;;;;;;;6.07;2.20;;;27.40;92.80;;;;;;6212359;23;20051;-74
2022/08/24 10:37:04;;;;;;;3.47;2.03;;;27.50;92.60;;;;;;6212887;23;20075;-75
2022/08/24 10:40:03;;;;;;;2.15;1.95;;;27.60;92.10;;;;;;6212751;23;20047;-75
2022/08/24 10:46:14;;;;;;;4.13;2.78;;;27.70;91.90;;;;;;6182039;23;20015;-75
2022/08/24 10:48:42;;;;;;;3.75;2.90;;;27.80;92.00;;;;;;6210634;23;20092;-75
2022/08/24 10:51:49;;;;;;;3.70;2.47;;;27.90;91.40;;;;;;6212849;23;20000;-75
2022/08/24 10:54:18;;;;;;;2.65;2.45;;;27.90;91.30;;;;;;6210615;23;20037;-76
2022/08/24 10:57:01;;;;;;;3.28;2.97;;;28.00;91.50;;;;;;6212788;23;20412;-75
2022/08/24 10:59:46;;;;;;;3.28;2.63;;;28.10;91.30;;;;;;6211245;23;20005;-74
2022/08/24 11:02:33;;;;;;;3.63;2.42;;;28.20;91.40;;;;;;6211910;23;20016;-75
2022/08/24 11:05:06;;;;;;;2.35;2.25;;;28.20;91.90;;;;;;6212911;23;20024;-76
2022/08/24 11:07:33;;;;;;;4.30;2.65;;;28.30;91.70;;;;;;6212317;23;20008;-76
2022/08/24 11:10:02;;;;;;;3.72;2.47;;;28.40;91.40;;;;;;6210935;23;19996;-77
2022/08/24 11:12:32;;;;;;;4.25;2.35;;;28.40;91.90;;;;;;6211881;23;20314;-76
2022/08/24 11:15:01;;;;;;;2.78;2.28;;;28.40;91.80;;;;;;6212541;23;20007;-75
2022/08/24 11:17:31;;;;;;;2.40;2.20;;;28.50;91.90;;;;;;6212177;23;20008;-76
2022/08/24 11:19:58;;;;;;;3.40;2.47;;;28.60;91.80;;;;;;6211171;23;21042;-77
2022/08/24 11:22:40;;;;;;;2.92;2.70;;;28.80;91.50;;;;;;6212215;23;20348;-77
2022/08/24 11:25:20;;;;;;;3.28;2.47;;;28.80;91.40;;;;;;6212483;23;20432;-77
2022/08/24 11:27:49;;;;;;;3.33;2.53;;;29.00;91.30;;;;;;6210288;23;20418;-76
2022/08/24 11:30:23;;;;;;;2.65;2.40;;;29.10;90.80;;;;;;6212589;23;20555;-75
2022/08/24 11:33:01;;;;;;;4.30;3.00;;;29.10;90.90;;;;;;6212052;23;20015;-75
2022/08/24 11:35:32;;;;;;;2.88;2.58;;;29.20;90.20;;;;;;6212763;23;20005;-75
2022/08/24 11:38:19;;;;;;;3.70;2.88;;;29.30;90.30;;;;;;6211410;23;20005;-75
2022/08/24 11:41:13;;;;;;;5.45;3.58;;;29.40;90.00;;;;;;6214311;23;20011;-75
2022/08/24 11:44:00;;;;;;;3.00;2.70;;;29.50;90.00;;;;;;6161052;23;20606;-75
2022/08/24 11:47:22;;;;;;;4.85;2.97;;;29.60;88.70;;;;;;6214201;23;20000;-76
2022/08/24 11:49:57;;;;;;;6.30;3.00;;;29.60;89.30;;;;;;6092958;23;20014;-76
2022/08/24 11:52:34;;;;;;;3.78;3.35;;;29.70;89.00;;;;;;6196088;23;20509;-76
2022/08/24 11:55:10;;;;;;;3.88;3.45;;;29.70;87.10;;;;;;6212567;23;20000;-75
2022/08/24 11:57:43;;;;;;;3.95;3.10;;;29.80;86.90;;;;;;6212290;23;20044;-76
2022/08/24 12:00:17;;;;;;;4.07;3.15;;;29.80;87.10;;;;;;6214425;23;20000;-76
2022/08/24 12:03:09;;;;;;;3.72;3.25;;;29.80;87.70;;;;;;6213749;23;20013;-75
2022/08/24 12:06:07;;;;;;;3.17;2.78;;;29.80;87.60;;;;;;6214103;23;20000;-78
2022/08/24 12:08:56;;;;;;;4.13;3.40;;;29.80;88.00;;;;;;6152108;23;20306;-79
2022/08/24 12:11:33;;;;;;;3.15;2.83;;;30.10;87.90;;;;;;6213989;23;20001;-77
2022/08/24 12:14:08;;;;;;;3.13;2.83;;;31.40;86.20;;;;;;6213612;23;20011;-77
2022/08/24 12:17:11;;;;;;;5.20;3.08;;;33.30;82.60;;;;;;6213913;23;20016;-75
2022/08/24 12:19:52;;;;;;;3.35;2.40;;;35.80;78.50;;;;;;6136925;23;20009;-77
2022/08/24 12:22:20;;;;;;;2.72;2.40;;;37.80;74.80;;;;;;6211920;23;20015;-77
2022/08/24 12:24:59;;;;;;;3.08;2.70;;;39.30;70.70;;;;;;6213855;23;19997;-77
2022/08/24 12:27:31;;;;;;;4.05;2.38;;;40.30;68.90;;;;;;6213407;23;20003;-78
2022/08/24 12:30:02;;;;;;;3.92;2.63;;;41.30;65.30;;;;;;6213819;23;20043;-78
2022/08/24 12:32:56;;;;;;;3.70;2.40;;;42.30;63.60;;;;;;6211862;23;20044;-78
2022/08/24 12:35:44;;;;;;;5.20;2.60;;;43.10;62.10;;;;;;6202258;23;20005;-78
2022/08/24 12:38:28;;;;;;;2.90;2.60;;;44.00;60.20;;;;;;6212157;23;20020;-77
2022/08/24 12:41:03;;;;;;;3.63;2.70;;;45.00;58.30;;;;;;6213941;23;20080;-77
2022/08/24 12:43:54;;;;;;;2.95;2.47;;;45.90;56.90;;;;;;6213254;23;20001;-77
2022/08/24 12:46:25;;;;;;;2.28;2.13;;;46.90;55.30;;;;;;6213679;23;20075;-77
2022/08/24 12:49:03;;;;;;;4.65;2.70;;;47.60;53.50;;;;;;6212987;23;20463;-78
2022/08/24 12:51:53;;;;;;;3.03;2.58;;;48.00;53.20;;;;;;6214016;23;20005;-78
2022/08/24 12:54:55;;;;;;;5.15;2.50;;;48.10;52.40;;;;;;6213470;23;20004;-78
2022/08/24 12:57:42;;;;;;;3.50;2.22;;;48.10;52.00;;;;;;6211174;23;20053;-77
2022/08/24 13:00:19;;;;;;;3.78;2.80;;;48.20;51.80;;;;;;6213617;23;20007;-78
2022/08/24 13:02:58;;;;;;;2.80;2.60;;;48.40;50.70;;;;;;6211323;23;20009;-77
2022/08/24 13:05:37;;;;;;;3.08;2.53;;;48.40;50.50;;;;;;6213637;23;20025;-77
2022/08/24 13:08:14;;;;;;;3.00;2.47;;;48.30;51.00;;;;;;6213253;23;20005;-78
2022/08/24 13:10:50;;;;;;;5.72;2.75;;;48.80;49.80;;;;;;6213911;23;20000;-77
2022/08/24 13:13:37;;;;;;;2.97;2.60;;;49.50;49.00;;;;;;6212867;23;20001;-77
2022/08/24 13:16:04;;;;;;;2.70;2.47;;;49.90;48.20;;;;;;6213567;23;20076;-78
2022/08/24 13:18:45;;;;;;;2.78;2.58;;;50.00;47.90;;;;;;6212941;23;20012;-77
2022/08/24 13:21:33;;;;;;;3.90;2.45;;;49.70;48.20;;;;;;6213334;23;20016;-77